createdAt,value
2022-08-19T00:04:25.634Z,1008.35
2022-08-19T00:18:25.573Z,1009.93
2022-08-19T00:32:25.576Z,1010.61
2022-08-19T00:46:25.614Z,1011.15
2022-08-19T01:00:25.723Z,1011.51
2022-08-19T01:14:25.818Z,1011.32
2022-08-19T01:28:33.752Z,1010.4
2022-08-19T01:42:30.388Z,1009.96
2022-08-19T01:56:25.956Z,1009.67
2022-08-19T02:10:25.933Z,1010.15
2022-08-19T02:24:26.055Z,1009.55
2022-08-19T02:38:25.992Z,1009.31
2022-08-19T02:52:25.987Z,1008.4
2022-08-19T03:06:25.994Z,1007.62
2022-08-19T03:20:26.045Z,1008.38
2022-08-19T03:34:26.056Z,1008.76
2022-08-19T03:48:26.139Z,1009.3
2022-08-19T04:02:26.120Z,1009.44
2022-08-19T04:17:26.119Z,1009.48
2022-08-19T04:32:26.140Z,1009.61
2022-08-19T04:47:47.219Z,1010.21
2022-08-19T05:02:26.402Z,1010.59
2022-08-19T05:18:26.410Z,1010.31
2022-08-19T05:33:26.432Z,1010.02
2022-08-19T05:48:26.470Z,1009.85
2022-08-19T06:03:26.456Z,1009.71
2022-08-19T06:18:26.445Z,1009.17
2022-08-19T06:33:26.455Z,1009.46
2022-08-19T06:48:26.477Z,1009.14
2022-08-19T07:03:26.468Z,1009.12
2022-08-19T07:18:26.458Z,1009.33
2022-08-19T07:33:27.878Z,1009.6
2022-08-19T07:48:26.470Z,1009.58
2022-08-19T08:03:26.458Z,1009.54
2022-08-19T08:18:27.416Z,1010.01
2022-08-19T08:33:30.347Z,1009.84
2022-08-19T08:48:26.455Z,1009.84
2022-08-19T09:03:26.485Z,1009.77
2022-08-19T09:18:26.496Z,1010.26
2022-08-19T09:33:26.470Z,1010.08
2022-08-19T09:48:26.545Z,1010
2022-08-19T10:03:29.890Z,1009.54
2022-08-19T10:18:26.612Z,1009.53
2022-08-19T10:33:38.585Z,1009.46
2022-08-19T10:59:49.375Z,1009.25
2022-08-19T11:14:49.482Z,1009.32
2022-08-19T11:29:49.648Z,1009.38
2022-08-19T11:44:49.956Z,1009.33
2022-08-19T11:59:49.945Z,1009.45
2022-08-19T12:14:49.992Z,1009.56
2022-08-19T12:29:50.010Z,1009.94
2022-08-19T12:44:50.017Z,1010.03
2022-08-19T12:59:50.058Z,1009.82
2022-08-19T13:14:50.090Z,1009.99
2022-08-19T13:29:50.093Z,1009.93
2022-08-19T13:44:50.084Z,1009.95
2022-08-19T13:59:50.073Z,1010.04
2022-08-19T14:29:46.811Z,1010.02
2022-08-19T14:44:46.915Z,1010.4
2022-08-19T14:59:47.055Z,1010.77
2022-08-19T15:14:47.160Z,1010.82
2022-08-19T15:29:47.286Z,1011
2022-08-19T15:44:47.219Z,1010.76
2022-08-19T15:59:47.755Z,1010.5
2022-08-19T16:14:47.478Z,1010.32
2022-08-19T16:29:47.615Z,1010.19
2022-08-19T16:44:47.752Z,1010.12
2022-08-19T16:59:48.580Z,1010.14
2022-08-19T17:14:47.776Z,1010.37
2022-08-19T17:29:47.774Z,1010.47
2022-08-19T17:44:50.625Z,1010.68
2022-08-19T17:59:47.771Z,1010.75
2022-08-19T18:14:47.829Z,1010.95
2022-08-19T18:29:47.849Z,1010.99
2022-08-19T18:44:47.847Z,1011.07
2022-08-19T18:58:47.881Z,1011.14
2022-08-19T19:12:47.856Z,1011.27
2022-08-19T19:26:47.879Z,1011.07
2022-08-19T19:40:48.116Z,1011.24
2022-08-19T19:54:48.126Z,1011.11
2022-08-19T20:08:48.203Z,1011.27
2022-08-19T20:22:48.275Z,1011.55
2022-08-19T20:36:48.287Z,1011.56
2022-08-19T20:50:48.303Z,1011.65
2022-08-19T21:04:48.288Z,1011.73
2022-08-19T21:18:48.403Z,1011.84
2022-08-19T21:32:52.356Z,1012.07
2022-08-19T21:46:50.287Z,1012.09
2022-08-19T22:00:48.673Z,1012.06
2022-08-19T22:14:48.645Z,1012
2022-08-19T22:28:48.656Z,1011.93
2022-08-19T22:42:48.652Z,1011.96
2022-08-19T22:56:48.699Z,1011.9
2022-08-19T23:10:48.693Z,1011.87
2022-08-19T23:24:48.742Z,1011.76
2022-08-19T23:38:48.806Z,1011.63
2022-08-19T23:52:48.781Z,1011.66
